createdAt,value
2023-03-31T00:01:58.001Z,8.97
2023-03-31T00:05:01.249Z,8.82
2023-03-31T00:08:04.140Z,8.70
2023-03-31T00:11:08.072Z,8.54
2023-03-31T00:14:11.214Z,8.39
2023-03-31T00:17:14.730Z,8.21
2023-03-31T00:20:17.403Z,8.22
2023-03-31T00:23:28.018Z,8.13
2023-03-31T00:26:31.600Z,8.12
2023-03-31T00:29:35.950Z,8.12
2023-03-31T00:32:38.636Z,8.02
2023-03-31T00:35:41.896Z,7.95
2023-03-31T00:38:46.405Z,7.90
2023-03-31T00:41:49.689Z,7.92
2023-03-31T00:45:31.006Z,7.92
2023-03-31T00:48:37.750Z,7.92
2023-03-31T00:51:40.566Z,7.93
2023-03-31T00:54:46.216Z,7.80
2023-03-31T00:57:49.017Z,7.47
2023-03-31T01:00:53.055Z,7.52
2023-03-31T01:03:57.457Z,7.44
2023-03-31T01:07:17.235Z,7.29
2023-03-31T01:10:20.401Z,7.27
2023-03-31T01:13:26.538Z,7.42
2023-03-31T01:16:29.336Z,7.49
2023-03-31T01:19:47.157Z,7.65
2023-03-31T01:23:10.744Z,7.84
2023-03-31T01:26:32.275Z,8.06
2023-03-31T01:29:53.743Z,8.04
2023-03-31T01:33:33.987Z,8.04
2023-03-31T01:36:54.398Z,7.99
2023-03-31T01:40:00.626Z,7.89
2023-03-31T01:43:12.792Z,7.83
2023-03-31T01:46:51.728Z,7.69
2023-03-31T01:50:02.582Z,7.66
2023-03-31T01:53:36.232Z,7.55
2023-03-31T01:56:44.106Z,7.46
2023-03-31T02:00:11.653Z,7.32
2023-03-31T02:03:21.950Z,7.31
2023-03-31T02:06:30.777Z,7.19
2023-03-31T02:09:39.144Z,6.88
2023-03-31T02:12:44.373Z,6.75
2023-03-31T02:15:54.799Z,6.70
2023-03-31T02:19:02.470Z,6.49
2023-03-31T02:22:08.864Z,6.37
2023-03-31T02:25:15.519Z,6.19
2023-03-31T02:28:24.943Z,5.99
2023-03-31T02:31:44.062Z,5.89
2023-03-31T02:34:47.125Z,5.79
2023-03-31T02:37:49.932Z,5.73
2023-03-31T02:40:53.543Z,5.61
2023-03-31T02:43:56.653Z,5.73
2023-03-31T02:46:59.828Z,5.57
2023-03-31T02:50:05.833Z,5.53
2023-03-31T02:53:21.138Z,5.94
2023-03-31T02:56:42.383Z,5.84
2023-03-31T03:00:08.833Z,5.74
2023-03-31T03:03:39.310Z,5.66
2023-03-31T03:06:57.652Z,5.51
2023-03-31T03:10:10.821Z,5.45
2023-03-31T03:13:24.533Z,5.50
2023-03-31T03:16:36.082Z,5.42
2023-03-31T03:19:41.772Z,5.43
2023-03-31T03:22:44.389Z,5.33
2023-03-31T03:25:48.037Z,5.25
2023-03-31T03:28:51.881Z,5.20
2023-03-31T03:31:55.064Z,5.07
2023-03-31T03:34:57.700Z,5.00
2023-03-31T03:38:00.684Z,4.94
2023-03-31T03:41:03.549Z,4.87
2023-03-31T03:44:06.786Z,4.82
2023-03-31T03:47:09.422Z,4.85
2023-03-31T03:50:15.948Z,4.94
2023-03-31T03:53:19.706Z,4.86
2023-03-31T03:56:22.813Z,4.83
2023-03-31T03:59:25.706Z,4.82
2023-03-31T04:02:29.115Z,4.87
2023-03-31T04:05:32.177Z,4.86
2023-03-31T04:08:34.846Z,4.82
2023-03-31T04:11:38.055Z,4.69
2023-03-31T04:14:41.449Z,4.67
2023-03-31T04:17:50.943Z,4.59
2023-03-31T04:21:12.424Z,4.53
2023-03-31T04:24:21.701Z,4.39
2023-03-31T04:27:27.265Z,4.51
2023-03-31T04:30:32.893Z,4.45
2023-03-31T04:33:38.854Z,4.56
2023-03-31T04:36:48.006Z,4.56
2023-03-31T04:39:54.651Z,4.49
2023-03-31T04:42:57.611Z,4.56
2023-03-31T04:46:00.341Z,4.52
2023-03-31T04:49:03.484Z,4.58
2023-03-31T04:52:06.224Z,4.60
2023-03-31T04:55:09.611Z,4.62
2023-03-31T04:58:12.300Z,4.92
2023-03-31T05:01:18.395Z,4.92
2023-03-31T05:04:24.196Z,4.80
2023-03-31T05:07:27.123Z,4.85
2023-03-31T05:10:30.618Z,4.91
2023-03-31T05:13:33.853Z,4.95
2023-03-31T05:16:36.541Z,5.22
2023-03-31T05:19:39.442Z,5.49
2023-03-31T05:22:43.863Z,5.63
2023-03-31T05:25:47.746Z,7.00
2023-03-31T05:28:50.630Z,9.01
2023-03-31T05:31:54.037Z,11.23
2023-03-31T05:34:57.220Z,13.24
2023-03-31T05:38:00.236Z,15.03
2023-03-31T05:41:03.126Z,15.71
2023-03-31T05:44:06.260Z,15.42
2023-03-31T05:47:08.980Z,14.66
2023-03-31T05:50:13.319Z,14.96
2023-03-31T05:53:17.452Z,15.33
2023-03-31T05:56:20.596Z,16.21
2023-03-31T05:59:23.386Z,17.53
2023-03-31T06:02:26.712Z,18.99
2023-03-31T06:05:31.260Z,19.63
2023-03-31T06:08:35.491Z,19.82
2023-03-31T06:11:38.784Z,21.04
2023-03-31T06:14:41.614Z,20.79
2023-03-31T06:17:44.747Z,22.49
2023-03-31T06:20:47.533Z,22.27
2023-03-31T06:23:52.738Z,22.90
2023-03-31T06:26:55.590Z,22.92
2023-03-31T06:29:58.631Z,22.95
2023-03-31T06:33:01.555Z,22.85
2023-03-31T06:36:05.928Z,23.60
2023-03-31T06:39:08.627Z,23.60
2023-03-31T06:42:11.642Z,24.85
2023-03-31T06:45:16.211Z,24.47
2023-03-31T06:48:19.722Z,24.80
2023-03-31T06:51:22.486Z,25.06
2023-03-31T06:54:26.106Z,25.68
2023-03-31T06:57:29.793Z,25.45
2023-03-31T07:00:33.863Z,22.53
2023-03-31T07:03:36.881Z,23.21
2023-03-31T07:06:39.898Z,23.97
2023-03-31T07:09:42.630Z,23.28
2023-03-31T07:12:45.933Z,24.37
2023-03-31T07:15:49.072Z,23.82
2023-03-31T07:18:54.850Z,23.87
2023-03-31T07:21:57.482Z,25.93
2023-03-31T07:25:00.682Z,27.21
2023-03-31T07:28:04.970Z,24.59
2023-03-31T07:31:12.339Z,20.26
2023-03-31T07:34:15.398Z,19.77
2023-03-31T07:37:18.389Z,22.24
2023-03-31T07:40:26.696Z,24.86
2023-03-31T07:43:29.992Z,26.85
2023-03-31T07:46:32.749Z,26.98
2023-03-31T07:49:36.935Z,24.10
2023-03-31T07:52:40.016Z,26.43
2023-03-31T07:55:42.973Z,27.24
2023-03-31T07:58:46.963Z,27.59
2023-03-31T08:01:49.908Z,27.37
2023-03-31T08:04:52.959Z,26.02
2023-03-31T08:07:55.701Z,21.37
2023-03-31T08:10:58.707Z,24.12
2023-03-31T08:14:01.592Z,24.43
2023-03-31T08:17:04.793Z,20.52
2023-03-31T08:20:09.332Z,21.11
2023-03-31T08:23:12.323Z,22.23
2023-03-31T08:26:18.462Z,23.50
2023-03-31T08:29:21.588Z,24.47
2023-03-31T08:32:24.924Z,23.97
2023-03-31T08:35:27.957Z,23.73
2023-03-31T08:38:31.341Z,23.90
2023-03-31T08:41:57.990Z,22.90
2023-03-31T08:45:16.061Z,24.39
2023-03-31T08:48:34.474Z,22.36
2023-03-31T08:51:41.438Z,25.28
2023-03-31T08:54:49.534Z,24.41
2023-03-31T08:58:01.213Z,20.65
2023-03-31T09:01:54.725Z,18.06
2023-03-31T09:05:11.535Z,17.82
2023-03-31T09:08:35.082Z,17.33
2023-03-31T09:11:58.714Z,16.81
2023-03-31T09:15:06.598Z,16.97
2023-03-31T09:18:38.395Z,17.22
2023-03-31T09:21:44.964Z,17.29
2023-03-31T09:25:06.148Z,17.24
2023-03-31T09:28:22.075Z,17.58
2023-03-31T09:31:25.070Z,18.19
2023-03-31T09:34:32.333Z,17.90
2023-03-31T09:37:34.960Z,17.26
2023-03-31T09:40:38.267Z,17.22
2023-03-31T09:43:41.937Z,17.35
2023-03-31T09:46:44.881Z,17.12
2023-03-31T09:49:54.019Z,17.46
2023-03-31T09:53:00.810Z,17.47
2023-03-31T09:56:08.471Z,17.66
2023-03-31T09:59:18.428Z,17.81
2023-03-31T10:02:33.975Z,18.02
2023-03-31T10:05:43.389Z,18.16
2023-03-31T10:08:58.278Z,18.37
2023-03-31T10:12:09.030Z,18.28
2023-03-31T10:15:20.777Z,17.76
2023-03-31T10:18:36.252Z,17.84
2023-03-31T10:21:39.386Z,18.34
2023-03-31T10:24:44.710Z,18.57
2023-03-31T10:27:49.935Z,18.66
2023-03-31T10:30:56.311Z,18.87
2023-03-31T10:33:59.900Z,18.77
2023-03-31T10:37:05.183Z,18.38
2023-03-31T10:40:24.837Z,18.10
2023-03-31T10:43:27.703Z,18.07
2023-03-31T10:46:47.916Z,17.85
2023-03-31T10:49:57.880Z,17.89
2023-03-31T10:53:04.041Z,18.09
2023-03-31T10:56:24.903Z,17.82
2023-03-31T10:59:58.703Z,17.85
2023-03-31T11:03:08.159Z,17.39
2023-03-31T11:06:46.033Z,17.05
2023-03-31T11:10:20.067Z,17.32
2023-03-31T11:13:29.637Z,17.63
2023-03-31T11:16:52.313Z,17.95
2023-03-31T11:19:57.823Z,18.01
2023-03-31T11:23:28.228Z,17.84
2023-03-31T11:26:46.559Z,17.95
2023-03-31T11:30:28.087Z,18.01
2023-03-31T11:34:10.078Z,17.81
2023-03-31T11:37:21.577Z,18.03
2023-03-31T11:40:36.060Z,17.81
2023-03-31T11:43:53.080Z,17.74
2023-03-31T11:47:06.602Z,17.68
2023-03-31T11:50:16.859Z,17.86
2023-03-31T11:53:25.647Z,18.17
2023-03-31T11:56:38.204Z,18.04
2023-03-31T11:59:43.095Z,18.10
2023-03-31T12:02:52.085Z,18.56
2023-03-31T12:06:03.961Z,18.36
2023-03-31T12:09:25.230Z,18.32
2023-03-31T12:12:32.321Z,18.41
2023-03-31T12:15:42.130Z,18.61
2023-03-31T12:19:07.969Z,18.61
2023-03-31T12:22:19.411Z,18.44
2023-03-31T12:25:23.236Z,18.26
2023-03-31T12:28:27.756Z,17.75
2023-03-31T12:31:33.225Z,17.64
2023-03-31T12:34:43.072Z,17.76
2023-03-31T12:38:01.164Z,17.87
2023-03-31T12:41:48.778Z,18.93
2023-03-31T12:45:28.223Z,19.20
2023-03-31T12:48:58.378Z,18.79
2023-03-31T12:52:48.813Z,18.83
2023-03-31T12:55:57.994Z,18.25
2023-03-31T12:59:19.101Z,18.20
2023-03-31T13:02:25.135Z,18.06
2023-03-31T13:05:40.472Z,18.04
2023-03-31T13:09:13.963Z,18.31
2023-03-31T13:12:23.350Z,18.32
2023-03-31T13:15:27.463Z,18.15
2023-03-31T13:18:34.100Z,18.35
2023-03-31T13:21:58.367Z,18.82
2023-03-31T13:25:29.822Z,19.32
2023-03-31T13:28:32.516Z,18.95
2023-03-31T13:32:00.485Z,18.51
2023-03-31T13:35:04.650Z,18.37
2023-03-31T13:38:27.725Z,18.13
2023-03-31T13:41:48.832Z,17.98
2023-03-31T13:44:55.667Z,17.95
2023-03-31T13:48:16.885Z,18.00
2023-03-31T13:51:25.745Z,17.65
2023-03-31T13:54:28.448Z,17.42
2023-03-31T13:58:05.403Z,17.27
2023-03-31T14:01:29.421Z,16.80
2023-03-31T14:05:04.373Z,16.57
2023-03-31T14:08:15.033Z,16.46
2023-03-31T14:11:21.499Z,16.42
2023-03-31T14:14:25.270Z,16.50
2023-03-31T14:17:31.923Z,16.49
2023-03-31T14:21:00.562Z,16.46
2023-03-31T14:24:37.016Z,16.29
2023-03-31T14:27:58.535Z,16.11
2023-03-31T14:31:26.913Z,16.23
2023-03-31T14:34:42.966Z,16.02
2023-03-31T14:37:46.633Z,15.83
2023-03-31T14:40:54.608Z,16.04
2023-03-31T14:44:02.961Z,16.05
2023-03-31T14:47:06.387Z,16.14
2023-03-31T14:50:13.787Z,16.15
2023-03-31T14:53:24.413Z,15.66
2023-03-31T14:56:36.341Z,15.48
2023-03-31T14:59:39.336Z,15.26
2023-03-31T15:02:44.882Z,15.33
2023-03-31T15:05:49.842Z,15.46
2023-03-31T15:08:57.638Z,15.41
2023-03-31T15:12:03.875Z,15.24
2023-03-31T15:15:08.218Z,15.09
2023-03-31T15:18:13.907Z,14.80
2023-03-31T15:21:25.899Z,14.69
2023-03-31T15:24:32.019Z,14.65
2023-03-31T15:27:45.294Z,14.50
2023-03-31T15:30:56.848Z,14.45
2023-03-31T15:34:27.308Z,14.51
2023-03-31T15:37:40.981Z,14.42
2023-03-31T15:40:45.979Z,14.19
2023-03-31T15:44:02.933Z,14.17
2023-03-31T15:47:21.797Z,14.11
2023-03-31T15:50:28.615Z,14.03
2023-03-31T15:53:49.251Z,13.94
2023-03-31T15:57:02.924Z,13.86
2023-03-31T16:00:08.012Z,13.76
2023-03-31T16:03:20.577Z,13.77
2023-03-31T16:06:48.067Z,13.74
2023-03-31T16:10:00.390Z,13.68
2023-03-31T16:13:07.622Z,13.60
2023-03-31T16:16:17.326Z,13.55
2023-03-31T16:19:24.788Z,13.53
2023-03-31T16:22:35.504Z,13.44
2023-03-31T16:25:41.407Z,13.40
2023-03-31T16:28:52.921Z,13.36
2023-03-31T16:32:22.288Z,13.33
2023-03-31T16:35:25.064Z,13.30
2023-03-31T16:38:29.872Z,13.29
2023-03-31T16:41:34.078Z,13.15
2023-03-31T16:44:37.144Z,13.20
2023-03-31T16:47:42.048Z,13.14
2023-03-31T16:50:48.844Z,13.11
2023-03-31T16:53:51.651Z,13.08
2023-03-31T16:56:54.587Z,13.07
2023-03-31T16:59:58.889Z,13.05
2023-03-31T17:03:03.484Z,12.99
2023-03-31T17:06:09.397Z,12.95
2023-03-31T17:09:12.440Z,12.91
2023-03-31T17:12:15.081Z,12.90
2023-03-31T17:15:18.571Z,12.88
2023-03-31T17:18:21.376Z,12.80
2023-03-31T17:21:24.687Z,12.78
2023-03-31T17:24:28.123Z,12.79
2023-03-31T17:27:32.231Z,12.77
2023-03-31T17:30:36.518Z,12.73
2023-03-31T17:33:40.292Z,12.73
2023-03-31T17:36:44.540Z,12.63
2023-03-31T17:39:47.739Z,12.68
2023-03-31T17:42:50.744Z,12.65
2023-03-31T17:46:02.194Z,12.61
2023-03-31T17:49:04.919Z,12.62
2023-03-31T17:52:08.189Z,12.51
2023-03-31T17:55:11.613Z,12.58
2023-03-31T17:58:14.616Z,12.58
2023-03-31T18:01:17.344Z,12.50
2023-03-31T18:04:20.872Z,12.55
2023-03-31T18:07:23.597Z,12.59
2023-03-31T18:10:26.686Z,12.54
2023-03-31T18:13:29.341Z,12.46
2023-03-31T18:16:32.608Z,12.51
2023-03-31T18:19:35.383Z,12.36
2023-03-31T18:22:38.347Z,12.23
2023-03-31T18:25:45.417Z,12.08
2023-03-31T18:28:48.761Z,11.99
2023-03-31T18:31:52.636Z,11.92
2023-03-31T18:34:57.295Z,11.83
2023-03-31T18:38:00.012Z,11.68
2023-03-31T18:41:03.629Z,11.29
2023-03-31T18:44:07.410Z,10.55
2023-03-31T18:47:10.457Z,10.04
2023-03-31T18:50:14.000Z,9.91
2023-03-31T18:53:19.072Z,9.79
2023-03-31T18:56:23.145Z,9.79
2023-03-31T18:59:26.177Z,9.69
2023-03-31T19:02:29.135Z,9.59
2023-03-31T19:05:37.126Z,9.53
2023-03-31T19:08:40.560Z,9.44
2023-03-31T19:11:43.866Z,9.37
2023-03-31T19:14:46.552Z,9.43
2023-03-31T19:17:49.747Z,9.38
2023-03-31T19:20:52.872Z,9.37
2023-03-31T19:23:55.922Z,9.35
2023-03-31T19:26:58.589Z,9.31
2023-03-31T19:30:01.760Z,9.30
2023-03-31T19:33:04.555Z,9.30
2023-03-31T19:36:07.951Z,9.30
2023-03-31T19:39:11.636Z,9.27
2023-03-31T19:42:17.867Z,9.20
2023-03-31T19:45:20.775Z,9.26
2023-03-31T19:48:26.233Z,9.32
2023-03-31T19:51:28.969Z,9.28
2023-03-31T19:54:32.786Z,9.30
2023-03-31T19:57:35.616Z,9.33
2023-03-31T20:00:39.450Z,9.24
2023-03-31T20:03:42.527Z,9.31
2023-03-31T20:06:46.173Z,9.24
2023-03-31T20:09:50.815Z,9.31
2023-03-31T20:12:54.085Z,9.24
2023-03-31T20:16:02.849Z,9.19
2023-03-31T20:19:06.265Z,9.12
2023-03-31T20:22:09.705Z,9.13
2023-03-31T20:25:12.407Z,9.02
2023-03-31T20:28:15.345Z,9.05
2023-03-31T20:31:21.218Z,8.94
2023-03-31T20:34:24.423Z,9.02
2023-03-31T20:37:27.119Z,9.03
2023-03-31T20:40:30.190Z,9.09
2023-03-31T20:43:33.036Z,9.05
2023-03-31T20:46:36.432Z,8.97
2023-03-31T20:49:39.166Z,9.03
2023-03-31T20:52:43.593Z,8.90
2023-03-31T20:55:46.462Z,8.83
2023-03-31T20:58:50.927Z,8.79
2023-03-31T21:01:53.635Z,8.69
2023-03-31T21:04:56.917Z,8.82
2023-03-31T21:07:59.757Z,8.70
2023-03-31T21:11:03.274Z,8.70
2023-03-31T21:14:06.619Z,8.74
2023-03-31T21:17:09.556Z,8.78
2023-03-31T21:20:12.604Z,8.84
2023-03-31T21:23:15.937Z,8.81
2023-03-31T21:26:19.223Z,8.75
2023-03-31T21:29:22.301Z,8.83
2023-03-31T21:32:28.005Z,8.74
2023-03-31T21:35:31.946Z,8.65
2023-03-31T21:38:36.427Z,8.66
2023-03-31T21:41:40.618Z,8.60
2023-03-31T21:44:43.731Z,8.52
2023-03-31T21:47:46.686Z,8.57
2023-03-31T21:50:49.462Z,8.62
2023-03-31T21:53:55.436Z,8.53
2023-03-31T21:56:58.422Z,8.49
2023-03-31T22:00:01.398Z,8.52
2023-03-31T22:03:22.250Z,8.53
2023-03-31T22:06:31.715Z,8.50
2023-03-31T22:09:34.602Z,8.38
2023-03-31T22:12:38.397Z,8.45
2023-03-31T22:15:43.971Z,8.45
2023-03-31T22:18:50.053Z,8.42
2023-03-31T22:21:53.696Z,8.37
2023-03-31T22:24:56.722Z,8.31
2023-03-31T22:28:00.472Z,8.26
2023-03-31T22:31:03.539Z,8.22
2023-03-31T22:34:06.555Z,8.18
2023-03-31T22:37:09.530Z,8.15
2023-03-31T22:40:12.172Z,8.14
2023-03-31T22:43:15.314Z,8.13
2023-03-31T22:46:18.021Z,8.12
2023-03-31T22:49:20.964Z,8.13
2023-03-31T22:52:23.796Z,8.13
2023-03-31T22:55:26.902Z,8.13
2023-03-31T22:58:29.459Z,8.10
2023-03-31T23:01:32.747Z,8.07
2023-03-31T23:04:35.517Z,8.01
2023-03-31T23:07:38.716Z,8.01
2023-03-31T23:10:41.414Z,7.90
2023-03-31T23:13:44.861Z,7.81
2023-03-31T23:16:47.661Z,7.89
2023-03-31T23:19:51.324Z,7.86
2023-03-31T23:22:54.054Z,7.76
2023-03-31T23:26:00.974Z,7.75
2023-03-31T23:29:04.287Z,7.84
2023-03-31T23:32:07.354Z,7.88
2023-03-31T23:35:11.550Z,7.86
2023-03-31T23:38:14.562Z,7.80
2023-03-31T23:41:18.238Z,7.63
2023-03-31T23:44:21.310Z,7.65
2023-03-31T23:47:24.675Z,7.61
2023-03-31T23:50:28.310Z,7.50
2023-03-31T23:53:31.133Z,7.54
2023-03-31T23:56:34.490Z,7.51
2023-03-31T23:59:37.296Z,7.42
